createdAt,value
2023-03-24T00:00:47.875Z,0
2023-03-24T00:04:12.978Z,0
2023-03-24T00:07:38.312Z,0
2023-03-24T00:11:03.371Z,0
2023-03-24T00:14:28.546Z,0
2023-03-24T00:17:53.812Z,0
2023-03-24T00:21:18.922Z,0
2023-03-24T00:24:44.168Z,0
2023-03-24T00:28:09.384Z,0
2023-03-24T00:31:34.677Z,0
2023-03-24T00:35:00.543Z,0
2023-03-24T00:38:25.677Z,0
2023-03-24T00:41:50.885Z,0
2023-03-24T00:45:16.085Z,0
2023-03-24T00:48:41.299Z,0
2023-03-24T00:52:06.483Z,0
2023-03-24T00:55:31.661Z,0
2023-03-24T00:58:56.855Z,0
2023-03-24T01:02:22.177Z,0
2023-03-24T01:05:47.249Z,0
2023-03-24T01:09:12.488Z,0
2023-03-24T01:12:37.660Z,0
2023-03-24T01:16:02.866Z,0
2023-03-24T01:19:28.030Z,0
2023-03-24T01:22:53.215Z,0
2023-03-24T01:26:18.461Z,0
2023-03-24T01:29:43.621Z,0
2023-03-24T01:33:08.834Z,0
2023-03-24T01:36:34.069Z,0
2023-03-24T01:39:59.258Z,0
2023-03-24T01:43:24.463Z,0
2023-03-24T01:46:49.669Z,0
2023-03-24T01:50:14.939Z,0
2023-03-24T01:53:40.147Z,0
2023-03-24T01:57:05.420Z,0
2023-03-24T02:00:30.629Z,0
2023-03-24T02:03:55.802Z,0
2023-03-24T02:07:20.947Z,0
2023-03-24T02:10:46.463Z,0
2023-03-24T02:14:11.384Z,0
2023-03-24T02:17:36.595Z,0
2023-03-24T02:21:01.760Z,0
2023-03-24T02:24:26.975Z,0
2023-03-24T02:27:52.200Z,0
2023-03-24T02:31:17.426Z,0
2023-03-24T02:34:42.677Z,0
2023-03-24T02:38:07.831Z,0
2023-03-24T02:41:33.044Z,0
2023-03-24T02:44:58.251Z,0
2023-03-24T02:48:23.449Z,0
2023-03-24T02:51:48.670Z,0
2023-03-24T02:55:13.912Z,0
2023-03-24T02:58:39.098Z,0
2023-03-24T03:02:04.325Z,0
2023-03-24T03:05:29.534Z,0
2023-03-24T03:08:54.822Z,0
2023-03-24T03:12:19.976Z,0
2023-03-24T03:15:45.186Z,0
2023-03-24T03:19:10.399Z,0
2023-03-24T03:22:35.588Z,0
2023-03-24T03:26:00.812Z,0
2023-03-24T03:29:26.014Z,0
2023-03-24T03:32:51.212Z,0
2023-03-24T03:36:16.439Z,0
2023-03-24T03:39:41.621Z,0
2023-03-24T03:43:06.848Z,0
2023-03-24T03:46:32.082Z,0
2023-03-24T03:49:57.296Z,0
2023-03-24T03:53:22.492Z,0
2023-03-24T03:56:47.784Z,0
2023-03-24T04:00:12.943Z,0
2023-03-24T04:03:38.177Z,0
2023-03-24T04:07:03.393Z,0
2023-03-24T04:10:28.616Z,0
2023-03-24T04:13:53.844Z,0
2023-03-24T04:17:19.049Z,0
2023-03-24T04:20:44.251Z,0
2023-03-24T04:24:09.453Z,0
2023-03-24T04:27:34.655Z,0
2023-03-24T04:30:59.896Z,0
2023-03-24T04:34:25.121Z,0
2023-03-24T04:37:50.316Z,0
2023-03-24T04:41:15.747Z,0
2023-03-24T04:44:40.897Z,0
2023-03-24T04:48:06.427Z,0
2023-03-24T04:51:31.645Z,0
2023-03-24T04:54:56.805Z,0
2023-03-24T04:58:22.026Z,0
2023-03-24T05:01:47.269Z,0
2023-03-24T05:05:12.488Z,0
2023-03-24T05:08:37.745Z,0
2023-03-24T05:12:02.961Z,0
2023-03-24T05:15:28.216Z,0
2023-03-24T05:18:53.474Z,0
2023-03-24T05:22:18.654Z,0
2023-03-24T05:25:44.039Z,0
2023-03-24T05:29:09.157Z,0
2023-03-24T05:32:34.363Z,0
2023-03-24T05:35:59.603Z,0
2023-03-24T05:39:24.772Z,0
2023-03-24T05:42:50.045Z,0
2023-03-24T05:46:15.250Z,0
2023-03-24T05:49:40.446Z,0
2023-03-24T05:53:05.718Z,0
2023-03-24T05:56:30.958Z,6
2023-03-24T05:59:58.396Z,6
2023-03-24T06:03:23.807Z,0
2023-03-24T06:06:48.897Z,0
2023-03-24T06:10:14.162Z,0
2023-03-24T06:13:39.348Z,0
2023-03-24T06:17:04.654Z,0
2023-03-24T06:20:29.836Z,0
2023-03-24T06:23:54.977Z,0
2023-03-24T06:27:20.124Z,0
2023-03-24T06:30:45.285Z,0
2023-03-24T06:34:10.462Z,0
2023-03-24T06:37:35.597Z,0
2023-03-24T06:41:00.758Z,0
2023-03-24T06:44:25.960Z,0
2023-03-24T06:47:51.130Z,0
2023-03-24T06:51:16.340Z,0
2023-03-24T06:54:42.151Z,0
2023-03-24T06:58:06.686Z,6
2023-03-24T07:01:31.870Z,6
2023-03-24T07:04:57.067Z,6
2023-03-24T07:08:34.434Z,6
2023-03-24T07:11:47.444Z,6
2023-03-24T07:15:12.624Z,6
2023-03-24T07:18:37.761Z,6
2023-03-24T07:22:02.950Z,6
2023-03-24T07:25:28.130Z,6
2023-03-24T07:28:53.229Z,6
2023-03-24T07:32:18.381Z,11
2023-03-24T07:35:43.790Z,6
2023-03-24T07:39:08.690Z,6
2023-03-24T07:42:33.891Z,6
2023-03-24T07:45:59.020Z,6
2023-03-24T07:49:24.123Z,6
2023-03-24T07:52:49.255Z,17
2023-03-24T07:56:14.435Z,39
2023-03-24T07:59:39.617Z,11
2023-03-24T08:03:04.834Z,11
2023-03-24T08:06:29.926Z,17
2023-03-24T08:09:55.078Z,17
2023-03-24T08:13:20.209Z,23
2023-03-24T08:16:45.414Z,17
2023-03-24T08:20:10.541Z,11
2023-03-24T08:23:35.710Z,11
2023-03-24T08:27:00.882Z,28
2023-03-24T08:30:26.093Z,6
2023-03-24T08:33:51.200Z,17
2023-03-24T08:37:16.358Z,45
2023-03-24T08:40:41.560Z,6
2023-03-24T08:44:07.286Z,23
2023-03-24T08:47:31.926Z,17
2023-03-24T08:50:57.188Z,23
2023-03-24T08:54:22.256Z,51
2023-03-24T08:57:47.435Z,34
2023-03-24T09:01:12.660Z,51
2023-03-24T09:04:37.853Z,39
2023-03-24T09:08:03.037Z,28
2023-03-24T09:11:28.200Z,23
2023-03-24T09:14:53.422Z,17
2023-03-24T09:18:18.599Z,6
2023-03-24T09:21:43.777Z,17
2023-03-24T09:25:08.963Z,11
2023-03-24T09:28:34.099Z,11
2023-03-24T09:31:59.271Z,17
2023-03-24T09:35:24.490Z,23
2023-03-24T09:38:49.667Z,28
2023-03-24T09:42:14.882Z,23
2023-03-24T09:45:40.109Z,17
2023-03-24T09:49:05.264Z,11
2023-03-24T09:52:30.431Z,11
2023-03-24T09:55:55.579Z,11
2023-03-24T09:59:20.784Z,23
2023-03-24T10:02:45.915Z,11
2023-03-24T10:06:11.030Z,17
2023-03-24T10:09:36.224Z,28
2023-03-24T10:13:01.380Z,28
2023-03-24T10:16:26.650Z,23
2023-03-24T10:19:53.034Z,23
2023-03-24T10:23:16.907Z,17
2023-03-24T10:26:42.084Z,11
2023-03-24T10:30:07.302Z,23
2023-03-24T10:33:32.507Z,23
2023-03-24T10:36:57.656Z,11
2023-03-24T10:40:22.900Z,11
2023-03-24T10:43:48.154Z,11
2023-03-24T10:47:13.462Z,11
2023-03-24T10:50:38.756Z,11
2023-03-24T10:54:03.913Z,11
2023-03-24T10:57:29.125Z,11
2023-03-24T11:00:54.376Z,6
2023-03-24T11:04:19.810Z,6
2023-03-24T11:07:44.847Z,6
2023-03-24T11:11:10.000Z,6
2023-03-24T11:14:35.345Z,6
2023-03-24T11:18:00.572Z,11
2023-03-24T11:21:25.822Z,11
2023-03-24T11:24:51.153Z,6
2023-03-24T11:28:16.315Z,6
2023-03-24T11:31:41.552Z,11
2023-03-24T11:35:06.797Z,11
2023-03-24T11:38:32.038Z,23
2023-03-24T11:41:57.314Z,23
2023-03-24T11:45:22.516Z,28
2023-03-24T11:48:47.768Z,11
2023-03-24T11:52:13.017Z,11
2023-03-24T11:55:38.231Z,11
2023-03-24T11:59:03.498Z,17
2023-03-24T12:02:28.721Z,17
2023-03-24T12:05:54.160Z,23
2023-03-24T12:09:19.194Z,6
2023-03-24T12:12:44.420Z,23
2023-03-24T12:16:09.728Z,23
2023-03-24T12:19:34.882Z,28
2023-03-24T12:23:00.142Z,34
2023-03-24T12:26:25.328Z,17
2023-03-24T12:29:50.621Z,11
2023-03-24T12:33:15.879Z,11
2023-03-24T12:36:41.063Z,11
2023-03-24T12:40:06.286Z,11
2023-03-24T12:43:31.487Z,6
2023-03-24T12:46:56.852Z,0
2023-03-24T12:50:22.072Z,0
2023-03-24T12:53:47.302Z,11
2023-03-24T12:57:12.674Z,28
2023-03-24T13:00:38.037Z,17
2023-03-24T13:04:03.328Z,11
2023-03-24T13:07:28.559Z,11
2023-03-24T13:10:53.808Z,11
2023-03-24T13:14:20.447Z,23
2023-03-24T13:17:45.660Z,51
2023-03-24T13:21:10.931Z,28
2023-03-24T13:24:36.264Z,17
2023-03-24T13:28:01.489Z,17
2023-03-24T13:31:26.737Z,17
2023-03-24T13:34:51.959Z,11
2023-03-24T13:38:17.131Z,23
2023-03-24T13:41:43.964Z,17
2023-03-24T13:45:07.744Z,17
2023-03-24T13:48:33.038Z,17
2023-03-24T13:51:58.273Z,17
2023-03-24T13:55:23.565Z,11
2023-03-24T13:58:48.816Z,11
2023-03-24T14:02:14.033Z,11
2023-03-24T14:05:39.358Z,11
2023-03-24T14:09:04.637Z,11
2023-03-24T14:12:30.651Z,17
2023-03-24T14:15:55.170Z,23
2023-03-24T14:19:20.364Z,23
2023-03-24T14:22:45.575Z,28
2023-03-24T14:26:10.809Z,23
2023-03-24T14:29:36.065Z,23
2023-03-24T14:33:01.356Z,28
2023-03-24T14:36:26.589Z,34
2023-03-24T14:39:51.805Z,34
2023-03-24T14:43:17.102Z,28
2023-03-24T14:46:42.366Z,23
2023-03-24T14:50:07.573Z,23
2023-03-24T14:53:32.745Z,23
2023-03-24T14:56:58.025Z,11
2023-03-24T15:00:23.261Z,11
2023-03-24T15:03:48.484Z,11
2023-03-24T15:42:10.172Z,6
2023-03-24T15:45:35.416Z,11
2023-03-24T15:49:00.648Z,11
2023-03-24T15:52:25.881Z,11
2023-03-24T15:55:51.096Z,11
2023-03-24T15:59:16.385Z,11
2023-03-24T16:02:41.618Z,11
2023-03-24T16:06:06.760Z,11
2023-03-24T16:09:32.028Z,11
2023-03-24T16:12:57.301Z,11
2023-03-24T16:16:22.592Z,11
2023-03-24T16:19:47.750Z,6
2023-03-24T16:23:13.000Z,6
2023-03-24T16:26:38.256Z,6
2023-03-24T16:30:03.473Z,6
2023-03-24T16:33:28.754Z,6
2023-03-24T16:36:53.956Z,6
2023-03-24T16:40:19.173Z,6
2023-03-24T16:43:44.399Z,0
2023-03-24T16:47:09.620Z,0
2023-03-24T16:50:34.897Z,6
2023-03-24T16:54:00.115Z,0
2023-03-24T16:57:25.432Z,0
2023-03-24T17:00:50.892Z,0
2023-03-24T17:04:15.931Z,0
2023-03-24T17:07:41.268Z,0
2023-03-24T17:11:06.533Z,0
2023-03-24T17:14:31.715Z,0
2023-03-24T17:17:56.909Z,0
2023-03-24T17:21:22.098Z,0
2023-03-24T17:24:47.312Z,0
2023-03-24T17:28:12.471Z,0
2023-03-24T17:31:37.754Z,0
2023-03-24T17:35:02.918Z,0
2023-03-24T17:38:28.140Z,0
2023-03-24T17:41:53.354Z,0
2023-03-24T17:45:18.547Z,0
2023-03-24T17:48:45.548Z,0
2023-03-24T17:52:08.878Z,0
2023-03-24T17:55:34.064Z,0
2023-03-24T17:58:59.297Z,0
2023-03-24T18:02:24.542Z,0
2023-03-24T18:05:49.749Z,0
2023-03-24T18:09:14.952Z,0
2023-03-24T18:12:40.152Z,0
2023-03-24T18:16:13.893Z,0
2023-03-24T18:19:30.726Z,0
2023-03-24T18:22:55.867Z,0
2023-03-24T18:26:21.083Z,0
2023-03-24T18:29:46.306Z,0
2023-03-24T18:33:11.586Z,0
2023-03-24T18:36:36.784Z,0
2023-03-24T18:40:02.021Z,0
2023-03-24T18:43:27.887Z,0
2023-03-24T18:46:53.308Z,0
2023-03-24T18:50:18.705Z,0
2023-03-24T18:53:43.813Z,0
2023-03-24T18:57:09.083Z,0
2023-03-24T19:00:34.234Z,0
2023-03-24T19:03:59.433Z,0
2023-03-24T19:07:24.706Z,0
2023-03-24T19:10:49.917Z,0
2023-03-24T19:14:15.136Z,0
2023-03-24T19:17:40.347Z,0
2023-03-24T19:21:05.531Z,0
2023-03-24T19:24:30.901Z,0
2023-03-24T19:27:56.036Z,0
2023-03-24T19:31:21.339Z,0
2023-03-24T19:34:46.511Z,0
2023-03-24T19:38:11.806Z,0
2023-03-24T19:41:37.082Z,0
2023-03-24T19:45:02.286Z,0
2023-03-24T19:48:27.568Z,0
2023-03-24T19:51:52.797Z,0
2023-03-24T19:55:18.016Z,0
2023-03-24T19:58:43.345Z,0
2023-03-24T20:02:08.438Z,0
2023-03-24T20:05:33.678Z,0
2023-03-24T20:08:58.893Z,0
2023-03-24T20:12:24.104Z,0
2023-03-24T20:15:49.568Z,0
2023-03-24T20:19:14.618Z,0
2023-03-24T20:22:39.851Z,0
2023-03-24T20:26:05.090Z,0
2023-03-24T20:29:30.307Z,0
2023-03-24T20:32:55.582Z,0
2023-03-24T20:36:20.823Z,0
2023-03-24T20:39:46.016Z,0
2023-03-24T20:43:11.235Z,0
2023-03-24T20:46:36.432Z,0
2023-03-24T20:50:01.705Z,0
2023-03-24T20:53:26.886Z,0
2023-03-24T20:56:52.178Z,0
2023-03-24T21:00:17.373Z,0
2023-03-24T21:03:42.605Z,0
2023-03-24T21:07:07.888Z,0
2023-03-24T21:10:33.092Z,0
2023-03-24T21:13:58.343Z,0
2023-03-24T21:17:23.590Z,0
2023-03-24T21:20:48.836Z,0
2023-03-24T21:24:14.148Z,0
2023-03-24T21:27:39.364Z,0
2023-03-24T21:31:04.670Z,0
2023-03-24T21:34:29.841Z,0
2023-03-24T21:37:55.035Z,0
2023-03-24T21:41:20.307Z,0
2023-03-24T21:44:45.483Z,0
2023-03-24T21:48:10.680Z,0
2023-03-24T21:51:35.882Z,0
2023-03-24T21:55:01.083Z,0
2023-03-24T21:58:26.353Z,0
2023-03-24T22:01:51.630Z,0
2023-03-24T22:05:16.821Z,0
2023-03-24T22:08:42.094Z,0
2023-03-24T22:12:07.308Z,0
2023-03-24T22:15:33.367Z,0
2023-03-24T22:18:57.854Z,0
2023-03-24T22:22:23.113Z,0
2023-03-24T22:25:48.453Z,0
2023-03-24T22:29:13.570Z,0
2023-03-24T22:32:38.915Z,0
2023-03-24T22:36:04.066Z,0
2023-03-24T22:39:29.256Z,0
2023-03-24T22:42:54.515Z,0
2023-03-24T22:46:19.733Z,0
2023-03-24T22:49:44.987Z,0
2023-03-24T22:53:10.192Z,0
2023-03-24T22:56:35.442Z,0
2023-03-24T23:00:00.691Z,0
2023-03-24T23:03:25.912Z,0
2023-03-24T23:06:51.118Z,0
2023-03-24T23:10:16.322Z,0
2023-03-24T23:13:41.559Z,0
2023-03-24T23:17:06.839Z,0
2023-03-24T23:20:32.252Z,0
2023-03-24T23:23:57.483Z,0
2023-03-24T23:27:22.680Z,0
2023-03-24T23:30:47.957Z,0
2023-03-24T23:34:13.200Z,0
2023-03-24T23:37:38.461Z,0
2023-03-24T23:41:03.735Z,0
2023-03-24T23:44:28.957Z,0
2023-03-24T23:47:54.210Z,0
2023-03-24T23:51:19.377Z,0
2023-03-24T23:54:44.636Z,0
2023-03-24T23:58:09.846Z,0
